sensor_id;sensor_type;location;lat;lon;timestamp;pressure;altitude;pressure_sealevel;temperature;humidity
64460;BME280;50828;53.756;21.140;2024-02-14T00:02:13;100182.71;;;2.70;75.11
64460;BME280;50828;53.756;21.140;2024-02-14T00:07:19;100188.61;;;2.72;75.12
64460;BME280;50828;53.756;21.140;2024-02-14T00:12:24;100190.86;;;2.74;75.06
64460;BME280;50828;53.756;21.140;2024-02-14T00:17:30;100197.96;;;2.78;75.18
64460;BME280;50828;53.756;21.140;2024-02-14T00:22:36;100198.83;;;2.81;75.35
64460;BME280;50828;53.756;21.140;2024-02-14T00:27:43;100200.70;;;2.85;75.13
64460;BME280;50828;53.756;21.140;2024-02-14T00:32:49;100199.30;;;2.86;75.25
64460;BME280;50828;53.756;21.140;2024-02-14T00:37:55;100202.60;;;2.87;75.05
64460;BME280;50828;53.756;21.140;2024-02-14T00:43:01;100208.52;;;2.86;74.83
64460;BME280;50828;53.756;21.140;2024-02-14T00:48:08;100218.45;;;2.84;74.88
64460;BME280;50828;53.756;21.140;2024-02-14T00:53:14;100218.33;;;2.78;74.85
64460;BME280;50828;53.756;21.140;2024-02-14T00:58:20;100220.25;;;2.74;74.84
64460;BME280;50828;53.756;21.140;2024-02-14T01:03:26;100223.05;;;2.70;74.70
64460;BME280;50828;53.756;21.140;2024-02-14T01:08:32;100216.31;;;2.65;74.68
64460;BME280;50828;53.756;21.140;2024-02-14T01:13:40;100216.86;;;2.60;74.64
64460;BME280;50828;53.756;21.140;2024-02-14T01:18:46;100220.89;;;2.55;74.63
64460;BME280;50828;53.756;21.140;2024-02-14T01:23:52;100217.80;;;2.50;74.73
64460;BME280;50828;53.756;21.140;2024-02-14T01:28:58;100214.34;;;2.45;74.54
64460;BME280;50828;53.756;21.140;2024-02-14T01:34:05;100212.29;;;2.39;74.51
64460;BME280;50828;53.756;21.140;2024-02-14T01:39:11;100215.78;;;2.34;74.62
64460;BME280;50828;53.756;21.140;2024-02-14T01:44:17;100217.20;;;2.30;74.47
64460;BME280;50828;53.756;21.140;2024-02-14T01:49:24;100221.03;;;2.27;74.27
64460;BME280;50828;53.756;21.140;2024-02-14T01:54:32;100217.75;;;2.20;74.16
64460;BME280;50828;53.756;21.140;2024-02-14T01:59:39;100222.30;;;2.17;73.98
64460;BME280;50828;53.756;21.140;2024-02-14T02:04:45;100222.14;;;2.10;73.82
64460;BME280;50828;53.756;21.140;2024-02-14T02:09:50;100225.83;;;2.04;73.60
64460;BME280;50828;53.756;21.140;2024-02-14T02:14:56;100214.55;;;1.94;73.51
64460;BME280;50828;53.756;21.140;2024-02-14T02:20:03;100219.63;;;1.87;73.30
64460;BME280;50828;53.756;21.140;2024-02-14T02:25:09;100223.13;;;1.77;73.03
64460;BME280;50828;53.756;21.140;2024-02-14T02:30:16;100224.36;;;1.66;73.00
64460;BME280;50828;53.756;21.140;2024-02-14T02:35:21;100229.23;;;1.58;72.91
64460;BME280;50828;53.756;21.140;2024-02-14T02:40:28;100241.58;;;1.51;72.83
64460;BME280;50828;53.756;21.140;2024-02-14T02:45:34;100248.35;;;1.42;72.82
64460;BME280;50828;53.756;21.140;2024-02-14T02:50:40;100250.78;;;1.33;72.82
64460;BME280;50828;53.756;21.140;2024-02-14T02:55:46;100250.61;;;1.26;72.83
64460;BME280;50828;53.756;21.140;2024-02-14T03:00:55;100254.25;;;1.20;73.01
64460;BME280;50828;53.756;21.140;2024-02-14T03:06:02;100254.95;;;1.14;73.12
64460;BME280;50828;53.756;21.140;2024-02-14T03:11:09;100262.39;;;1.10;73.32
64460;BME280;50828;53.756;21.140;2024-02-14T03:16:14;100265.00;;;1.05;73.25
64460;BME280;50828;53.756;21.140;2024-02-14T03:21:21;100265.86;;;1.00;73.02
64460;BME280;50828;53.756;21.140;2024-02-14T03:26:27;100268.97;;;0.95;72.97
64460;BME280;50828;53.756;21.140;2024-02-14T03:31:33;100275.73;;;0.89;72.86
64460;BME280;50828;53.756;21.140;2024-02-14T03:36:38;100276.58;;;0.82;72.80
64460;BME280;50828;53.756;21.140;2024-02-14T03:41:44;100281.09;;;0.77;72.78
64460;BME280;50828;53.756;21.140;2024-02-14T03:46:50;100287.65;;;0.70;72.69
64460;BME280;50828;53.756;21.140;2024-02-14T03:51:56;100283.11;;;0.64;72.78
64460;BME280;50828;53.756;21.140;2024-02-14T03:57:02;100287.09;;;0.59;72.68
64460;BME280;50828;53.756;21.140;2024-02-14T04:08:14;100289.98;;;0.46;72.71
64460;BME280;50828;53.756;21.140;2024-02-14T04:13:20;100291.88;;;0.43;72.61
64460;BME280;50828;53.756;21.140;2024-02-14T04:18:26;100290.29;;;0.37;72.92
64460;BME280;50828;53.756;21.140;2024-02-14T04:23:32;100293.74;;;0.32;72.84
64460;BME280;50828;53.756;21.140;2024-02-14T04:28:39;100288.35;;;0.26;72.69
64460;BME280;50828;53.756;21.140;2024-02-14T04:33:46;100292.67;;;0.24;72.81
64460;BME280;50828;53.756;21.140;2024-02-14T04:38:57;100295.26;;;0.20;72.72
64460;BME280;50828;53.756;21.140;2024-02-14T04:44:03;100297.83;;;0.16;72.98
64460;BME280;50828;53.756;21.140;2024-02-14T04:49:10;100294.86;;;0.13;72.92
64460;BME280;50828;53.756;21.140;2024-02-14T04:54:16;100300.05;;;0.10;73.01
64460;BME280;50828;53.756;21.140;2024-02-14T04:59:22;100299.17;;;0.06;72.79
64460;BME280;50828;53.756;21.140;2024-02-14T05:04:28;100303.98;;;0.01;72.92
64460;BME280;50828;53.756;21.140;2024-02-14T05:09:33;100310.73;;;-0.02;72.85
64460;BME280;50828;53.756;21.140;2024-02-14T05:14:39;100313.12;;;-0.05;72.89
64460;BME280;50828;53.756;21.140;2024-02-14T05:19:45;100313.98;;;-0.06;73.04
64460;BME280;50828;53.756;21.140;2024-02-14T05:24:51;100316.73;;;-0.09;73.10
64460;BME280;50828;53.756;21.140;2024-02-14T05:29:57;100325.03;;;-0.10;73.08
64460;BME280;50828;53.756;21.140;2024-02-14T05:35:03;100327.80;;;-0.12;73.12
64460;BME280;50828;53.756;21.140;2024-02-14T05:40:10;100325.36;;;-0.14;73.07
64460;BME280;50828;53.756;21.140;2024-02-14T05:45:16;100323.60;;;-0.18;73.07
64460;BME280;50828;53.756;21.140;2024-02-14T05:50:22;100323.41;;;-0.21;73.05
64460;BME280;50828;53.756;21.140;2024-02-14T05:55:27;100312.06;;;-0.32;73.03
64460;BME280;50828;53.756;21.140;2024-02-14T06:00:34;100334.47;;;-0.23;73.10
64460;BME280;50828;53.756;21.140;2024-02-14T06:05:40;100331.86;;;-0.25;73.21
64460;BME280;50828;53.756;21.140;2024-02-14T06:10:46;100338.26;;;-0.25;73.26
64460;BME280;50828;53.756;21.140;2024-02-14T06:15:52;100345.17;;;-0.27;73.33
64460;BME280;50828;53.756;21.140;2024-02-14T06:20:57;100353.13;;;-0.28;73.28
64460;BME280;50828;53.756;21.140;2024-02-14T06:26:03;100349.12;;;-0.31;73.29
64460;BME280;50828;53.756;21.140;2024-02-14T06:31:09;100352.95;;;-0.29;73.50
64460;BME280;50828;53.756;21.140;2024-02-14T06:36:15;100352.10;;;-0.26;73.56
64460;BME280;50828;53.756;21.140;2024-02-14T06:41:21;100352.50;;;-0.21;73.65
64460;BME280;50828;53.756;21.140;2024-02-14T06:46:26;100350.77;;;-0.18;73.85
64460;BME280;50828;53.756;21.140;2024-02-14T06:51:32;100355.17;;;-0.09;73.71
64460;BME280;50828;53.756;21.140;2024-02-14T06:56:38;100353.83;;;-0.04;73.85
64460;BME280;50828;53.756;21.140;2024-02-14T07:01:44;100358.19;;;0.03;73.96
64460;BME280;50828;53.756;21.140;2024-02-14T07:06:50;100371.41;;;0.10;73.99
64460;BME280;50828;53.756;21.140;2024-02-14T07:11:55;100376.30;;;0.17;74.19
64460;BME280;50828;53.756;21.140;2024-02-14T07:17:02;100375.99;;;0.24;74.16
64460;BME280;50828;53.756;21.140;2024-02-14T07:22:07;100390.77;;;0.30;74.05
64460;BME280;50828;53.756;21.140;2024-02-14T07:27:14;100389.59;;;0.38;74.26
64460;BME280;50828;53.756;21.140;2024-02-14T07:32:20;100387.20;;;0.47;74.27
64460;BME280;50828;53.756;21.140;2024-02-14T07:37:26;100383.97;;;0.55;74.39
64460;BME280;50828;53.756;21.140;2024-02-14T07:42:31;100377.41;;;0.63;74.19
64460;BME280;50828;53.756;21.140;2024-02-14T07:47:37;100382.14;;;0.72;74.23
64460;BME280;50828;53.756;21.140;2024-02-14T07:52:44;100382.69;;;0.81;74.35
64460;BME280;50828;53.756;21.140;2024-02-14T07:57:50;100380.98;;;0.91;74.46
64460;BME280;50828;53.756;21.140;2024-02-14T08:02:56;100388.66;;;1.02;74.48
64460;BME280;50828;53.756;21.140;2024-02-14T08:08:02;100384.02;;;1.14;74.56
64460;BME280;50828;53.756;21.140;2024-02-14T08:13:08;100386.48;;;1.24;74.47
64460;BME280;50828;53.756;21.140;2024-02-14T08:18:15;100385.27;;;1.35;74.62
64460;BME280;50828;53.756;21.140;2024-02-14T08:23:21;100384.08;;;1.45;74.65
64460;BME280;50828;53.756;21.140;2024-02-14T08:28:27;100386.35;;;1.57;74.73
64460;BME280;50828;53.756;21.140;2024-02-14T08:33:32;100386.70;;;1.70;74.77
64460;BME280;50828;53.756;21.140;2024-02-14T08:38:38;100382.18;;;1.82;74.94
64460;BME280;50828;53.756;21.140;2024-02-14T08:43:44;100380.63;;;1.95;74.92
64460;BME280;50828;53.756;21.140;2024-02-14T08:48:50;100380.44;;;2.09;74.96
64460;BME280;50828;53.756;21.140;2024-02-14T08:53:58;100387.90;;;2.21;74.90
64460;BME280;50828;53.756;21.140;2024-02-14T08:59:07;100385.25;;;2.34;74.97
64460;BME280;50828;53.756;21.140;2024-02-14T09:04:13;100380.70;;;2.46;74.80
64460;BME280;50828;53.756;21.140;2024-02-14T09:09:19;100379.63;;;2.59;75.03
64460;BME280;50828;53.756;21.140;2024-02-14T09:14:25;100380.63;;;2.70;74.86
64460;BME280;50828;53.756;21.140;2024-02-14T09:19:32;100387.52;;;2.86;75.04
64460;BME280;50828;53.756;21.140;2024-02-14T09:24:38;100383.47;;;2.98;75.10
64460;BME280;50828;53.756;21.140;2024-02-14T09:29:44;100383.77;;;3.09;75.23
64460;BME280;50828;53.756;21.140;2024-02-14T09:34:49;100383.48;;;3.24;75.26
64460;BME280;50828;53.756;21.140;2024-02-14T09:39:55;100378.88;;;3.39;75.29
64460;BME280;50828;53.756;21.140;2024-02-14T09:45:01;100380.52;;;3.53;75.23
64460;BME280;50828;53.756;21.140;2024-02-14T09:50:07;100375.91;;;3.66;75.23
64460;BME280;50828;53.756;21.140;2024-02-14T09:55:14;100381.36;;;3.81;75.21
64460;BME280;50828;53.756;21.140;2024-02-14T10:00:21;100385.25;;;3.96;75.09
64460;BME280;50828;53.756;21.140;2024-02-14T10:05:27;100391.03;;;4.11;75.28
64460;BME280;50828;53.756;21.140;2024-02-14T10:10:33;100390.02;;;4.27;75.36
64460;BME280;50828;53.756;21.140;2024-02-14T10:15:40;100385.52;;;4.41;75.10
64460;BME280;50828;53.756;21.140;2024-02-14T10:20:54;100391.77;;;4.58;74.99
64460;BME280;50828;53.756;21.140;2024-02-14T10:26:01;100392.64;;;4.73;75.04
64460;BME280;50828;53.756;21.140;2024-02-14T10:31:07;100389.33;;;4.88;74.89
64460;BME280;50828;53.756;21.140;2024-02-14T10:36:14;100385.67;;;5.01;74.80
64460;BME280;50828;53.756;21.140;2024-02-14T10:41:21;100383.23;;;5.14;74.91
64460;BME280;50828;53.756;21.140;2024-02-14T10:46:27;100384.11;;;5.26;74.64
64460;BME280;50828;53.756;21.140;2024-02-14T10:51:36;100386.25;;;5.36;74.45
64460;BME280;50828;53.756;21.140;2024-02-14T10:56:46;100385.41;;;5.45;74.43
64460;BME280;50828;53.756;21.140;2024-02-14T11:01:54;100378.88;;;5.49;74.04
64460;BME280;50828;53.756;21.140;2024-02-14T11:07:01;100378.92;;;5.59;73.98
64460;BME280;50828;53.756;21.140;2024-02-14T11:12:08;100372.97;;;5.71;74.13
64460;BME280;50828;53.756;21.140;2024-02-14T11:17:18;100368.75;;;5.83;74.04
64460;BME280;50828;53.756;21.140;2024-02-14T11:22:35;100363.36;;;5.91;73.83
64460;BME280;50828;53.756;21.140;2024-02-14T11:27:44;100365.42;;;6.05;73.85
64460;BME280;50828;53.756;21.140;2024-02-14T11:32:50;100367.14;;;6.17;73.39
64460;BME280;50828;53.756;21.140;2024-02-14T11:37:56;100348.42;;;6.17;73.08
64460;BME280;50828;53.756;21.140;2024-02-14T11:43:04;100353.72;;;6.33;73.32
64460;BME280;50828;53.756;21.140;2024-02-14T11:48:10;100349.50;;;6.44;73.11
64460;BME280;50828;53.756;21.140;2024-02-14T11:53:17;100349.08;;;6.56;72.94
64460;BME280;50828;53.756;21.140;2024-02-14T11:58:24;100341.68;;;6.68;72.63
64460;BME280;50828;53.756;21.140;2024-02-14T12:03:31;100338.39;;;6.74;72.00
64460;BME280;50828;53.756;21.140;2024-02-14T12:08:39;100343.11;;;6.83;71.82
64460;BME280;50828;53.756;21.140;2024-02-14T12:13:48;100344.90;;;6.90;71.43
64460;BME280;50828;53.756;21.140;2024-02-14T12:19:03;100339.66;;;6.96;71.52
64460;BME280;50828;53.756;21.140;2024-02-14T12:24:11;100341.60;;;7.06;70.93
64460;BME280;50828;53.756;21.140;2024-02-14T12:29:18;100337.68;;;7.15;70.96
64460;BME280;50828;53.756;21.140;2024-02-14T12:34:24;100339.52;;;7.27;70.88
64460;BME280;50828;53.756;21.140;2024-02-14T12:39:31;100339.63;;;7.37;70.48
64460;BME280;50828;53.756;21.140;2024-02-14T12:44:37;100342.91;;;7.46;70.23
64460;BME280;50828;53.756;21.140;2024-02-14T12:49:43;100346.85;;;7.58;70.04
64460;BME280;50828;53.756;21.140;2024-02-14T12:54:48;100342.60;;;7.67;69.52
64460;BME280;50828;53.756;21.140;2024-02-14T12:59:54;100340.68;;;7.74;69.01
64460;BME280;50828;53.756;21.140;2024-02-14T13:05:00;100340.86;;;7.80;68.79
64460;BME280;50828;53.756;21.140;2024-02-14T13:10:07;100338.48;;;7.84;68.70
64460;BME280;50828;53.756;21.140;2024-02-14T13:15:13;100337.00;;;7.87;68.55
64460;BME280;50828;53.756;21.140;2024-02-14T13:20:19;100336.88;;;7.93;68.32
64460;BME280;50828;53.756;21.140;2024-02-14T13:25:26;100336.73;;;7.99;68.18
64460;BME280;50828;53.756;21.140;2024-02-14T13:30:31;100338.95;;;8.00;67.13
64460;BME280;50828;53.756;21.140;2024-02-14T13:35:36;100338.10;;;8.00;66.90
64460;BME280;50828;53.756;21.140;2024-02-14T13:40:43;100339.92;;;8.04;67.08
64460;BME280;50828;53.756;21.140;2024-02-14T13:45:48;100345.58;;;8.09;67.40
64460;BME280;50828;53.756;21.140;2024-02-14T13:50:54;100348.07;;;8.14;67.27
64460;BME280;50828;53.756;21.140;2024-02-14T13:56:00;100346.41;;;8.17;67.04
64460;BME280;50828;53.756;21.140;2024-02-14T14:01:06;100349.80;;;8.22;66.90
64460;BME280;50828;53.756;21.140;2024-02-14T14:06:11;100351.09;;;8.26;66.96
64460;BME280;50828;53.756;21.140;2024-02-14T14:11:18;100354.84;;;8.30;66.65
64460;BME280;50828;53.756;21.140;2024-02-14T14:16:23;100356.15;;;8.34;66.78
64460;BME280;50828;53.756;21.140;2024-02-14T14:21:29;100361.16;;;8.36;66.37
64460;BME280;50828;53.756;21.140;2024-02-14T14:26:34;100361.73;;;8.35;66.06
64460;BME280;50828;53.756;21.140;2024-02-14T14:31:40;100365.89;;;8.31;65.84
64460;BME280;50828;53.756;21.140;2024-02-14T14:36:47;100372.02;;;8.24;65.61
64460;BME280;50828;53.756;21.140;2024-02-14T14:41:52;100372.19;;;8.18;65.86
64460;BME280;50828;53.756;21.140;2024-02-14T14:47:02;100374.57;;;8.14;66.09
64460;BME280;50828;53.756;21.140;2024-02-14T14:52:08;100376.82;;;8.08;65.88
64460;BME280;50828;53.756;21.140;2024-02-14T14:57:14;100371.39;;;8.01;65.90
64460;BME280;50828;53.756;21.140;2024-02-14T15:02:20;100370.31;;;7.95;66.03
64460;BME280;50828;53.756;21.140;2024-02-14T15:07:26;100370.80;;;7.89;66.06
64460;BME280;50828;53.756;21.140;2024-02-14T15:12:32;100365.35;;;7.83;65.96
64460;BME280;50828;53.756;21.140;2024-02-14T15:17:39;100363.06;;;7.77;66.14
64460;BME280;50828;53.756;21.140;2024-02-14T15:22:45;100362.64;;;7.72;66.11
64460;BME280;50828;53.756;21.140;2024-02-14T15:27:51;100358.95;;;7.65;66.19
64460;BME280;50828;53.756;21.140;2024-02-14T15:32:59;100359.26;;;7.60;66.26
64460;BME280;50828;53.756;21.140;2024-02-14T15:38:23;100362.26;;;7.51;66.26
64460;BME280;50828;53.756;21.140;2024-02-14T15:43:31;100364.58;;;7.42;66.18
64460;BME280;50828;53.756;21.140;2024-02-14T15:48:37;100367.05;;;7.33;66.07
64460;BME280;50828;53.756;21.140;2024-02-14T15:53:43;100369.00;;;7.25;66.11
64460;BME280;50828;53.756;21.140;2024-02-14T15:58:49;100368.00;;;7.15;65.88
64460;BME280;50828;53.756;21.140;2024-02-14T16:03:55;100366.40;;;7.08;65.98
64460;BME280;50828;53.756;21.140;2024-02-14T16:09:01;100368.67;;;7.00;65.96
64460;BME280;50828;53.756;21.140;2024-02-14T16:14:07;100370.23;;;6.92;66.02
64460;BME280;50828;53.756;21.140;2024-02-14T16:19:12;100375.45;;;6.85;66.19
64460;BME280;50828;53.756;21.140;2024-02-14T16:24:18;100377.19;;;6.77;66.29
64460;BME280;50828;53.756;21.140;2024-02-14T16:29:24;100374.19;;;6.70;66.44
64460;BME280;50828;53.756;21.140;2024-02-14T16:34:29;100373.45;;;6.63;66.45
64460;BME280;50828;53.756;21.140;2024-02-14T16:39:35;100378.80;;;6.57;66.71
64460;BME280;50828;53.756;21.140;2024-02-14T16:44:46;100386.98;;;6.51;66.75
64460;BME280;50828;53.756;21.140;2024-02-14T16:49:52;100386.02;;;6.47;66.73
64460;BME280;50828;53.756;21.140;2024-02-14T16:54:58;100385.95;;;6.41;67.06
64460;BME280;50828;53.756;21.140;2024-02-14T17:00:05;100387.80;;;6.35;67.18
64460;BME280;50828;53.756;21.140;2024-02-14T17:05:11;100383.85;;;6.32;67.23
64460;BME280;50828;53.756;21.140;2024-02-14T17:10:17;100390.39;;;6.28;67.08
64460;BME280;50828;53.756;21.140;2024-02-14T17:15:23;100395.02;;;6.22;67.50
64460;BME280;50828;53.756;21.140;2024-02-14T17:20:29;100403.45;;;6.21;67.40
64460;BME280;50828;53.756;21.140;2024-02-14T17:25:35;100400.88;;;6.18;67.34
64460;BME280;50828;53.756;21.140;2024-02-14T17:30:42;100401.63;;;6.15;67.65
64460;BME280;50828;53.756;21.140;2024-02-14T17:35:51;100399.24;;;6.12;67.75
64460;BME280;50828;53.756;21.140;2024-02-14T17:40:57;100404.02;;;6.08;67.62
64460;BME280;50828;53.756;21.140;2024-02-14T17:46:02;100408.43;;;6.06;67.82
64460;BME280;50828;53.756;21.140;2024-02-14T17:51:08;100408.84;;;6.01;67.72
64460;BME280;50828;53.756;21.140;2024-02-14T17:56:14;100412.23;;;5.97;68.03
64460;BME280;50828;53.756;21.140;2024-02-14T18:01:20;100417.52;;;5.94;67.97
64460;BME280;50828;53.756;21.140;2024-02-14T18:06:26;100413.89;;;5.90;68.18
64460;BME280;50828;53.756;21.140;2024-02-14T18:11:32;100413.08;;;5.87;68.30
64460;BME280;50828;53.756;21.140;2024-02-14T18:16:38;100412.06;;;5.85;68.17
64460;BME280;50828;53.756;21.140;2024-02-14T18:21:44;100415.92;;;5.83;68.35
64460;BME280;50828;53.756;21.140;2024-02-14T18:26:50;100417.52;;;5.81;68.30
64460;BME280;50828;53.756;21.140;2024-02-14T18:31:56;100415.81;;;5.80;68.28
64460;BME280;50828;53.756;21.140;2024-02-14T18:37:05;100418.64;;;5.78;68.32
64460;BME280;50828;53.756;21.140;2024-02-14T18:42:32;100418.84;;;5.77;68.40
64460;BME280;50828;53.756;21.140;2024-02-14T18:47:37;100425.83;;;5.77;68.54
64460;BME280;50828;53.756;21.140;2024-02-14T18:52:43;100424.45;;;5.75;68.25
64460;BME280;50828;53.756;21.140;2024-02-14T18:57:49;100420.81;;;5.73;68.51
64460;BME280;50828;53.756;21.140;2024-02-14T19:02:54;100419.13;;;5.70;68.38
64460;BME280;50828;53.756;21.140;2024-02-14T19:08:00;100414.25;;;5.68;68.36
64460;BME280;50828;53.756;21.140;2024-02-14T19:13:07;100417.77;;;5.66;68.44
64460;BME280;50828;53.756;21.140;2024-02-14T19:18:13;100416.05;;;5.64;68.58
64460;BME280;50828;53.756;21.140;2024-02-14T19:23:19;100416.10;;;5.62;68.38
64460;BME280;50828;53.756;21.140;2024-02-14T19:28:25;100416.98;;;5.60;68.52
64460;BME280;50828;53.756;21.140;2024-02-14T19:33:30;100426.29;;;5.57;68.55
64460;BME280;50828;53.756;21.140;2024-02-14T19:38:36;100424.73;;;5.56;68.74
64460;BME280;50828;53.756;21.140;2024-02-14T19:43:42;100423.52;;;5.55;68.58
64460;BME280;50828;53.756;21.140;2024-02-14T19:48:47;100422.33;;;5.53;68.67
64460;BME280;50828;53.756;21.140;2024-02-14T19:53:53;100421.15;;;5.51;68.59
64460;BME280;50828;53.756;21.140;2024-02-14T19:58:59;100423.08;;;5.49;68.74
64460;BME280;50828;53.756;21.140;2024-02-14T20:04:05;100416.81;;;5.47;68.75
64460;BME280;50828;53.756;21.140;2024-02-14T20:09:13;100415.98;;;5.45;68.73
64460;BME280;50828;53.756;21.140;2024-02-14T20:14:19;100418.81;;;5.43;68.70
64460;BME280;50828;53.756;21.140;2024-02-14T20:19:25;100416.55;;;5.41;68.72
64460;BME280;50828;53.756;21.140;2024-02-14T20:24:31;100412.41;;;5.39;68.92
64460;BME280;50828;53.756;21.140;2024-02-14T20:29:37;100410.66;;;5.38;68.81
64460;BME280;50828;53.756;21.140;2024-02-14T20:34:43;100412.08;;;5.37;68.99
64460;BME280;50828;53.756;21.140;2024-02-14T20:39:49;100406.69;;;5.36;68.88
64460;BME280;50828;53.756;21.140;2024-02-14T20:44:55;100401.83;;;5.34;68.95
64460;BME280;50828;53.756;21.140;2024-02-14T20:50:02;100392.08;;;5.31;68.78
64460;BME280;50828;53.756;21.140;2024-02-14T20:55:10;100385.63;;;5.31;68.87
64460;BME280;50828;53.756;21.140;2024-02-14T21:00:16;100385.09;;;5.30;68.78
64460;BME280;50828;53.756;21.140;2024-02-14T21:05:22;100382.50;;;5.29;69.05
64460;BME280;50828;53.756;21.140;2024-02-14T21:10:29;100380.95;;;5.28;68.93
64460;BME280;50828;53.756;21.140;2024-02-14T21:15:36;100391.60;;;5.27;68.78
64460;BME280;50828;53.756;21.140;2024-02-14T21:20:42;100389.87;;;5.27;68.58
64460;BME280;50828;53.756;21.140;2024-02-14T21:25:48;100392.50;;;5.26;68.84
64460;BME280;50828;53.756;21.140;2024-02-14T21:30:54;100387.78;;;5.27;68.68
64460;BME280;50828;53.756;21.140;2024-02-14T21:35:59;100379.75;;;5.27;68.61
64460;BME280;50828;53.756;21.140;2024-02-14T21:41:05;100377.47;;;5.27;68.85
64460;BME280;50828;53.756;21.140;2024-02-14T21:46:11;100372.75;;;5.27;68.74
64460;BME280;50828;53.756;21.140;2024-02-14T21:51:17;100372.91;;;5.28;68.73
64460;BME280;50828;53.756;21.140;2024-02-14T21:56:23;100373.25;;;5.28;68.58
64460;BME280;50828;53.756;21.140;2024-02-14T22:01:29;100377.98;;;5.28;68.43
64460;BME280;50828;53.756;21.140;2024-02-14T22:06:35;100382.69;;;5.27;68.21
64460;BME280;50828;53.756;21.140;2024-02-14T22:11:41;100387.41;;;5.28;68.38
64460;BME280;50828;53.756;21.140;2024-02-14T22:16:46;100380.94;;;5.28;68.36
64460;BME280;50828;53.756;21.140;2024-02-14T22:21:53;100377.95;;;5.29;68.23
64460;BME280;50828;53.756;21.140;2024-02-14T22:26:58;100381.79;;;5.30;68.20
64460;BME280;50828;53.756;21.140;2024-02-14T22:32:05;100382.12;;;5.31;68.23
64460;BME280;50828;53.756;21.140;2024-02-14T22:37:11;100380.36;;;5.32;68.11
64460;BME280;50828;53.756;21.140;2024-02-14T22:42:17;100376.52;;;5.33;68.11
64460;BME280;50828;53.756;21.140;2024-02-14T22:47:23;100372.84;;;5.33;67.88
64460;BME280;50828;53.756;21.140;2024-02-14T22:52:29;100374.77;;;5.32;67.92
64460;BME280;50828;53.756;21.140;2024-02-14T22:57:36;100374.09;;;5.31;67.77
64460;BME280;50828;53.756;21.140;2024-02-14T23:02:41;100375.48;;;5.31;68.00
64460;BME280;50828;53.756;21.140;2024-02-14T23:07:47;100373.56;;;5.30;67.69
64460;BME280;50828;53.756;21.140;2024-02-14T23:12:54;100364.87;;;5.29;67.71
64460;BME280;50828;53.756;21.140;2024-02-14T23:18:00;100364.88;;;5.28;67.63
64460;BME280;50828;53.756;21.140;2024-02-14T23:23:06;100364.73;;;5.26;67.42
64460;BME280;50828;53.756;21.140;2024-02-14T23:28:12;100352.35;;;5.24;67.34
64460;BME280;50828;53.756;21.140;2024-02-14T23:33:18;100353.25;;;5.22;67.23
64460;BME280;50828;53.756;21.140;2024-02-14T23:38:24;100352.04;;;5.22;67.27
64460;BME280;50828;53.756;21.140;2024-02-14T23:43:30;100352.23;;;5.21;67.36
64460;BME280;50828;53.756;21.140;2024-02-14T23:48:36;100351.71;;;5.20;67.21
64460;BME280;50828;53.756;21.140;2024-02-14T23:53:42;100355.56;;;5.19;67.18
64460;BME280;50828;53.756;21.140;2024-02-14T23:58:49;100360.11;;;5.18;67.43
